Time;durP1;ratioP1;P1;durP2;ratioP2;P2;SDS_P1;SDS_P2;PMS_P1;PMS_P2;Temp;Humidity;BMP_temperature;BMP_pressure;BME280_temperature;BME280_humidity;BME280_pressure;Samples;Min_cycle;Max_cycle;Signal;HPM_P1;HPM_P2
2022/08/17 00:01:00;;;;;;;35.75;27.00;;;;;;;20.80;72.34;100819.66;5034093;28;20040;-82
2022/08/17 00:03:36;;;;;;;32.58;26.92;;;;;;;20.80;73.20;100832.47;5053922;28;20392;-81
2022/08/17 00:06:07;;;;;;;33.22;26.83;;;;;;;20.80;73.43;100830.53;5035080;28;20025;-81
2022/08/17 00:08:38;;;;;;;35.08;27.52;;;;;;;20.81;72.57;100831.34;5051113;28;20020;-81
2022/08/17 00:11:06;;;;;;;34.78;27.77;;;;;;;20.77;73.23;100825.75;5049913;28;20069;-81
2022/08/17 00:13:42;;;;;;;35.53;27.75;;;;;;;20.78;72.93;100815.66;5053152;28;20025;-80
2022/08/17 00:16:16;;;;;;;32.80;25.23;;;;;;;20.77;73.38;100819.50;5052809;28;20503;-81
2022/08/17 00:18:41;;;;;;;34.47;28.47;;;;;;;20.69;73.84;100810.22;5035168;28;20303;-81
2022/08/17 00:21:08;;;;;;;38.10;29.27;;;;;;;20.62;75.05;100804.47;5046380;28;20086;-81
2022/08/17 00:23:34;;;;;;;38.17;29.55;;;;;;;20.60;76.02;100815.72;5053096;28;20025;-81
2022/08/17 00:26:00;;;;;;;40.77;29.93;;;;;;;20.47;75.74;100790.28;5050263;28;20037;-81
2022/08/17 00:28:26;;;;;;;38.17;30.70;;;;;;;20.48;76.07;100801.97;5052031;28;20162;-81
2022/08/17 00:30:52;;;;;;;39.63;32.80;;;;;;;20.45;76.08;100802.66;5041316;28;20611;-81
2022/08/17 00:33:21;;;;;;;38.60;30.75;;;;;;;20.45;75.86;100791.75;5015216;28;20037;-81
2022/08/17 00:35:47;;;;;;;41.92;31.77;;;;;;;20.41;76.71;100781.53;5032463;28;20025;-81
2022/08/17 00:38:13;;;;;;;41.15;30.85;;;;;;;20.41;77.02;100789.69;5045377;28;20032;-81
2022/08/17 00:40:45;;;;;;;41.17;30.73;;;;;;;20.42;76.04;100791.28;5052181;28;20032;-81
2022/08/17 00:43:25;;;;;;;39.63;31.17;;;;;;;20.40;76.82;100779.91;5051536;28;20031;-81
2022/08/17 00:45:50;;;;;;;40.15;31.02;;;;;;;20.47;76.39;100784.03;5051131;28;20029;-82
2022/08/17 00:48:16;;;;;;;39.57;30.47;;;;;;;20.47;76.44;100784.03;5052901;28;20136;-82
2022/08/17 00:50:53;;;;;;;48.22;33.53;;;;;;;20.45;76.78;100787.09;5034313;28;20029;-81
2022/08/17 00:53:21;;;;;;;41.10;33.70;;;;;;;20.40;78.42;100790.81;5052880;28;20103;-82
2022/08/17 00:55:49;;;;;;;42.22;31.52;;;;;;;20.45;77.26;100789.03;5052093;28;20023;-81
2022/08/17 00:58:15;;;;;;;41.40;31.35;;;;;;;20.43;77.44;100784.72;5041142;28;20025;-81
2022/08/17 01:00:45;;;;;;;43.37;32.43;;;;;;;20.35;77.00;100785.53;5051118;28;20039;-81
2022/08/17 01:03:18;;;;;;;39.08;30.70;;;;;;;20.36;77.52;100784.41;5052187;28;20568;-82
2022/08/17 01:05:44;;;;;;;41.17;33.72;;;;;;;20.26;78.61;100768.44;5033550;28;20036;-81
2022/08/17 01:08:14;;;;;;;40.70;31.30;;;;;;;20.35;78.00;100785.53;5052489;28;20071;-81
2022/08/17 01:10:45;;;;;;;40.88;29.80;;;;;;;20.39;77.00;100780.22;5050641;28;20461;-81
2022/08/17 01:13:12;;;;;;;37.42;30.80;;;;;;;20.39;78.02;100783.75;5032155;28;20037;-81
2022/08/17 01:15:41;;;;;;;43.08;30.77;;;;;;;20.42;77.60;100785.03;5043909;28;20574;-81
2022/08/17 01:18:09;;;;;;;38.15;32.22;;;;;;;20.38;77.39;100775.91;5049447;28;20045;-81
2022/08/17 01:20:36;;;;;;;40.28;31.65;;;;;;;20.35;78.21;100782.81;5051430;28;20431;-81
2022/08/17 01:23:02;;;;;;;38.50;31.10;;;;;;;20.32;77.75;100775.28;5051531;28;20048;-81
2022/08/17 01:25:28;;;;;;;39.43;31.90;;;;;;;20.33;78.80;100773.38;5049920;28;20299;-81
2022/08/17 01:27:54;;;;;;;40.75;31.05;;;;;;;20.33;77.90;100766.00;5051252;28;20521;-81
2022/08/17 01:30:20;;;;;;;36.85;30.90;;;;;;;20.33;77.83;100765.22;5051256;28;20615;-81
2022/08/17 01:32:46;;;;;;;41.30;31.15;;;;;;;20.34;78.37;100766.81;5048424;28;20029;-81
2022/08/17 01:35:11;;;;;;;41.87;30.10;;;;;;;20.26;78.14;100754.84;5061565;28;20031;-81
2022/08/17 01:37:40;;;;;;;38.20;30.45;;;;;;;20.26;78.45;100758.34;5070465;28;20032;-81
2022/08/17 01:40:17;;;;;;;43.00;32.37;;;;;;;20.19;78.05;100751.81;5070663;28;20551;-81
2022/08/17 01:43:07;;;;;;;44.97;32.65;;;;;;;20.18;78.29;100751.00;5051283;28;20029;-81
2022/08/17 01:45:40;;;;;;;39.72;30.13;;;;;;;20.09;79.15;100747.53;5052133;28;20353;-81
2022/08/17 01:48:05;;;;;;;36.22;29.55;;;;;;;20.05;79.35;100747.38;5050233;28;20475;-81
2022/08/17 01:50:33;;;;;;;37.90;31.20;;;;;;;20.05;79.51;100752.00;5047912;28;20021;-81
2022/08/17 01:53:03;;;;;;;38.88;30.77;;;;;;;19.93;79.55;100739.09;5013387;28;20025;-81
2022/08/17 01:55:37;;;;;;;38.03;29.98;;;;;;;19.93;79.11;100749.97;5033998;28;20530;-82
2022/08/17 01:58:02;;;;;;;37.50;30.75;;;;;;;19.93;79.44;100748.06;5051192;28;20075;-81
2022/08/17 02:00:28;;;;;;;40.13;31.13;;;;;;;19.86;79.67;100742.28;5045806;28;20030;-81
2022/08/17 02:02:53;;;;;;;41.17;31.10;;;;;;;19.89;79.91;100749.03;5031481;28;20136;-82
2022/08/17 02:05:18;;;;;;;37.85;30.95;;;;;;;19.87;79.73;100746.63;5031081;28;20018;-82
2022/08/17 02:07:44;;;;;;;40.47;30.77;;;;;;;19.87;80.08;100740.38;5056373;28;20394;-81
2022/08/17 02:10:10;;;;;;;38.77;31.33;;;;;;;19.92;79.70;100742.91;5069860;28;20068;-81
2022/08/17 02:12:36;;;;;;;38.92;29.77;;;;;;;19.91;80.08;100738.59;5070694;28;20032;-81
2022/08/17 02:15:06;;;;;;;38.33;29.88;;;;;;;19.93;79.24;100737.19;5051497;28;20503;-81
2022/08/17 02:17:31;;;;;;;38.15;29.80;;;;;;;19.91;80.09;100742.13;5035836;28;20036;-81
2022/08/17 02:19:57;;;;;;;37.83;30.67;;;;;;;19.85;80.49;100743.38;5030316;28;20041;-81
2022/08/17 02:22:24;;;;;;;37.47;29.60;;;;;;;19.79;80.31;100737.31;5030706;28;20091;-81
2022/08/17 02:24:52;;;;;;;46.78;31.58;;;;;;;19.73;81.52;100737.81;5059235;28;20033;-81
2022/08/17 02:27:17;;;;;;;38.05;28.90;;;;;;;19.68;81.04;100730.66;5048567;28;20025;-81
2022/08/17 02:29:43;;;;;;;40.37;29.97;;;;;;;19.58;80.81;100729.06;5042051;28;20711;-81
2022/08/17 02:32:22;;;;;;;34.47;28.38;;;;;;;19.55;80.69;100739.75;5029696;28;20052;-81
2022/08/17 02:34:47;;;;;;;41.15;29.02;;;;;;;19.51;81.09;100740.41;5029456;28;20021;-81
2022/08/17 02:37:16;;;;;;;40.03;29.30;;;;;;;19.44;81.14;100742.81;5012951;28;20062;-81
2022/08/17 02:39:43;;;;;;;37.15;29.33;;;;;;;19.38;82.30;100733.19;5021347;28;20505;-81
2022/08/17 02:42:08;;;;;;;38.05;31.10;;;;;;;19.30;84.94;100729.38;5051695;28;20380;-81
2022/08/17 02:44:33;;;;;;;39.67;28.67;;;;;;;19.31;82.67;100730.19;5070610;28;20037;-81
2022/08/17 02:46:59;;;;;;;40.03;30.27;;;;;;;19.24;83.47;100713.56;5066855;28;20025;-81
2022/08/17 02:49:27;;;;;;;39.72;30.15;;;;;;;19.25;83.67;100717.88;5030389;28;20037;-82
2022/08/17 02:51:52;;;;;;;46.40;31.10;;;;;;;19.22;83.97;100716.59;5048293;28;20104;-82
2022/08/17 02:54:20;;;;;;;40.90;32.17;;;;;;;19.18;85.51;100721.06;5050497;28;20118;-82
2022/08/17 02:56:45;;;;;;;41.20;31.83;;;;;;;19.11;85.43;100710.69;5056820;28;20399;-82
2022/08/17 02:59:11;;;;;;;43.03;33.50;;;;;;;19.08;85.31;100715.97;5047614;28;20040;-82
2022/08/17 03:01:36;;;;;;;42.83;33.87;;;;;;;19.05;85.93;100711.94;5042808;28;20102;-81
2022/08/17 03:04:02;;;;;;;38.85;31.27;;;;;;;19.06;84.44;100708.94;5030037;28;20026;-82
2022/08/17 03:06:27;;;;;;;38.77;31.40;;;;;;;19.00;84.20;100709.38;5042853;28;20041;-82
2022/08/17 03:08:53;;;;;;;40.40;31.85;;;;;;;19.03;85.36;100711.47;5049159;28;20025;-81
2022/08/17 03:11:18;;;;;;;42.97;34.87;;;;;;;18.92;86.66;100703.59;5047515;28;20021;-82
2022/08/17 03:13:44;;;;;;;40.13;32.17;;;;;;;18.95;86.25;100701.41;5051513;28;20091;-82
2022/08/17 03:16:11;;;;;;;40.17;31.90;;;;;;;18.91;85.70;100703.91;5031745;28;20387;-82
2022/08/17 03:18:36;;;;;;;42.78;31.90;;;;;;;18.84;86.31;100701.66;5029845;28;20029;-82
2022/08/17 03:21:03;;;;;;;41.37;31.97;;;;;;;18.87;85.66;100706.47;5041976;28;20396;-82
2022/08/17 03:23:31;;;;;;;43.53;34.30;;;;;;;18.89;87.15;100717.81;5048298;28;20025;-82
2022/08/17 03:25:57;;;;;;;49.10;36.03;;;;;;;18.86;87.35;100712.22;5040789;28;20087;-82
2022/08/17 03:28:23;;;;;;;51.67;36.53;;;;;;;18.83;88.41;100710.94;5042118;28;20029;-82
2022/08/17 03:30:49;;;;;;;49.42;37.53;;;;;;;18.80;88.90;100711.59;5061459;28;20028;-82
2022/08/17 03:33:15;;;;;;;50.80;36.20;;;;;;;18.72;87.25;100707.72;5045899;28;20036;-82
2022/08/17 03:35:41;;;;;;;45.38;34.70;;;;;;;18.79;87.81;100711.88;5044695;28;20115;-82
2022/08/17 03:38:09;;;;;;;43.88;34.90;;;;;;;18.76;87.95;100710.59;5035690;28;20087;-82
2022/08/17 03:40:35;;;;;;;42.45;34.90;;;;;;;18.74;87.72;100707.41;5028835;28;20495;-81
2022/08/17 03:43:06;;;;;;;43.50;35.28;;;;;;;18.77;87.73;100712.22;5044765;28;20060;-82
2022/08/17 03:56:43;;;;;;;43.45;32.97;;;;;;;18.80;87.56;100718.91;5048515;28;20103;-82
2022/08/17 03:59:15;;;;;;;44.55;33.95;;;;;;;18.86;87.42;100729.28;5048819;28;20108;-82
2022/08/17 04:01:43;;;;;;;41.03;32.83;;;;;;;18.87;87.80;100724.69;5051745;28;20078;-83
2022/08/17 04:04:09;;;;;;;42.15;32.85;;;;;;;18.91;87.79;100731.06;5049350;28;20563;-82
2022/08/17 04:06:40;;;;;;;41.83;32.65;;;;;;;18.94;86.69;100733.16;5049420;28;20025;-83
2022/08/17 04:09:06;;;;;;;43.40;32.77;;;;;;;18.97;87.28;100737.97;5043817;28;20029;-83
2022/08/17 04:11:33;;;;;;;38.78;32.45;;;;;;;18.97;86.98;100735.25;5011264;28;20031;-82
2022/08/17 04:16:35;;;;;;;43.72;33.80;;;;;;;18.99;87.04;100740.38;5707488;22;20055;-82
2022/08/17 04:29:21;;;;;;;51.00;37.03;;;;;;;18.87;89.02;100765.41;5965084;22;20048;-90
2022/08/17 04:31:46;;;;;;;55.17;37.17;;;;;;;18.99;90.07;100778.41;5053475;28;20312;-87
2022/08/17 04:34:12;;;;;;;50.03;38.87;;;;;;;18.97;91.71;100773.28;5046302;28;20061;-89
2022/08/17 04:36:37;;;;;;;51.30;38.57;;;;;;;18.89;92.28;100753.09;5044740;28;20464;-89
2022/08/17 04:39:03;;;;;;;51.10;37.60;;;;;;;19.00;92.31;100778.06;5048454;28;20040;-89
2022/08/17 04:44:12;;;;;;;51.45;37.95;;;;;;;19.02;91.77;100811.13;5049745;28;20091;-88
2022/08/17 04:46:38;;;;;;;54.30;38.93;;;;;;;19.01;92.11;100831.25;5052401;28;20021;-90
2022/08/17 04:49:07;;;;;;;47.67;36.65;;;;;;;19.15;91.84;100833.03;5052515;28;20073;-89
2022/08/17 04:51:50;;;;;;;47.53;36.28;;;;;;;19.19;91.58;100820.44;5058885;28;20048;-87
2022/08/17 04:54:19;;;;;;;47.90;36.92;;;;;;;19.21;91.05;100840.72;5052631;28;20039;-89
2022/08/17 04:56:45;;;;;;;44.40;34.17;;;;;;;19.20;90.11;100797.59;5058625;28;20461;-88
2022/08/17 04:59:16;;;;;;;44.33;34.73;;;;;;;19.33;89.25;100829.25;5055540;28;20276;-89
2022/08/17 05:01:45;;;;;;;52.78;36.22;;;;;;;19.30;92.01;100793.78;5050653;28;20063;-87
2022/08/17 05:04:15;;;;;;;53.88;37.60;;;;;;;19.21;94.74;100816.28;5048051;28;20025;-87
2022/08/17 05:06:41;;;;;;;51.92;38.65;;;;;;;18.98;95.26;100804.72;5052663;28;20029;-86
2022/08/17 05:09:06;;;;;;;52.63;39.27;;;;;;;18.73;98.31;100811.66;5050851;28;20032;-86
2022/08/17 05:11:31;;;;;;;53.13;40.20;;;;;;;18.67;97.79;100821.03;5051045;28;20033;-87
2022/08/17 05:13:58;;;;;;;53.63;40.33;;;;;;;18.57;99.29;100822.94;5052468;28;20082;-86
2022/08/17 05:16:26;;;;;;;60.05;42.75;;;;;;;18.44;100.00;100802.91;5051051;28;20054;-86
2022/08/17 05:18:52;;;;;;;54.83;39.72;;;;;;;18.36;100.00;100809.06;5051224;28;20025;-85
2022/08/17 05:21:21;;;;;;;52.65;39.88;;;;;;;18.36;100.00;100819.13;5051650;28;20086;-86
2022/08/17 05:23:48;;;;;;;60.13;43.13;;;;;;;18.26;100.00;100802.00;5049208;28;20697;-85
2022/08/17 05:26:17;;;;;;;53.10;40.42;;;;;;;18.36;100.00;100811.78;5028115;28;20060;-85
2022/08/17 05:28:42;;;;;;;56.10;41.10;;;;;;;18.30;100.00;100797.56;5051745;28;20500;-86
2022/08/17 05:31:08;;;;;;;56.75;41.03;;;;;;;18.39;100.00;100804.97;5050140;28;20063;-83
2022/08/17 05:33:37;;;;;;;56.95;38.80;;;;;;;18.39;100.00;100805.75;5051442;28;20083;-83
2022/08/17 05:36:05;;;;;;;52.90;39.90;;;;;;;18.49;100.00;100810.09;5050580;28;20075;-84
2022/08/17 05:38:31;;;;;;;56.38;40.33;;;;;;;18.56;100.00;100801.50;5048372;28;20025;-84
2022/08/17 05:40:59;;;;;;;58.43;41.93;;;;;;;18.62;100.00;100806.47;5049800;28;20029;-83
2022/08/17 05:43:27;;;;;;;54.67;41.80;;;;;;;18.70;100.00;100798.69;5043374;28;20298;-83
2022/08/17 05:46:06;;;;;;;50.33;38.60;;;;;;;18.82;100.00;100796.19;5015628;28;20057;-83
2022/08/17 05:48:41;;;;;;;54.95;40.15;;;;;;;18.87;100.00;100787.13;5045970;28;20063;-83
2022/08/17 05:51:32;;;;;;;51.85;37.75;;;;;;;18.99;100.00;100794.69;5048167;28;20041;-83
2022/08/17 05:54:27;;;;;;;48.35;36.10;;;;;;;19.12;99.63;100793.75;5048905;28;20112;-83
2022/08/17 05:57:24;;;;;;;47.03;34.10;;;;;;;19.29;98.34;100786.75;5048787;28;20116;-84
2022/08/17 06:00:02;;;;;;;42.50;32.88;;;;;;;19.53;97.75;100794.44;5050843;28;20025;-83
2022/08/17 06:02:49;;;;;;;45.17;34.22;;;;;;;19.64;97.29;100787.53;5026223;28;20037;-83
2022/08/17 06:05:42;;;;;;;51.05;35.80;;;;;;;19.93;98.67;100788.03;5047293;28;20021;-83
2022/08/17 06:08:10;;;;;;;44.53;34.23;;;;;;;20.22;96.06;100789.25;5050665;28;20171;-83
2022/08/17 06:11:10;;;;;;;39.47;32.57;;;;;;;20.59;93.62;100800.50;5050824;28;20323;-83
2022/08/17 06:13:38;;;;;;;47.90;34.65;;;;;;;20.79;91.08;100795.47;5044571;28;20037;-83
2022/08/17 06:16:07;;;;;;;48.42;35.83;;;;;;;20.84;89.70;100792.53;5047515;28;20025;-82
2022/08/17 06:18:43;;;;;;;45.72;33.00;;;;;;;21.08;89.14;100823.81;5039256;28;20033;-81
2022/08/17 06:21:15;;;;;;;40.55;32.22;;;;;;;21.09;88.63;100823.47;5018872;28;20025;-81
2022/08/17 06:23:51;;;;;;;37.38;29.85;;;;;;;21.17;87.96;100830.81;5048137;28;20036;-84
2022/08/17 06:26:21;;;;;;;39.53;28.45;;;;;;;21.22;86.49;100840.72;5043028;28;20021;-82
2022/08/17 06:28:52;;;;;;;38.00;29.23;;;;;;;21.17;87.09;100832.75;5045884;28;20021;-84
2022/08/17 06:31:30;;;;;;;35.92;28.65;;;;;;;21.13;86.72;100838.06;5050178;28;20033;-83
2022/08/17 06:33:58;;;;;;;35.67;28.57;;;;;;;21.10;86.43;100840.66;5050170;28;20033;-82
2022/08/17 06:37:01;;;;;;;36.33;26.77;;;;;;;21.16;86.99;100842.06;5049869;28;20651;-82
2022/08/17 06:40:10;;;;;;;34.88;26.63;;;;;;;21.12;86.17;100841.91;5050689;28;20385;-82
2022/08/17 06:42:48;;;;;;;36.38;27.38;;;;;;;21.06;85.92;100845.16;5048644;28;20032;-84
2022/08/17 06:45:18;;;;;;;31.25;25.15;;;;;;;21.04;86.04;100848.22;5039788;28;20041;-82
2022/08/17 06:48:01;;;;;;;34.75;26.23;;;;;;;21.05;86.00;100852.53;5040492;28;20035;-83
2022/08/17 06:50:36;;;;;;;33.42;26.15;;;;;;;21.09;84.90;100855.38;5043775;28;20381;-82
2022/08/17 06:53:21;;;;;;;30.85;25.73;;;;;;;21.12;85.21;100852.00;5045351;28;20024;-82
2022/08/17 06:55:58;;;;;;;35.28;25.52;;;;;;;21.12;84.91;100858.25;5036174;28;20576;-82
2022/08/17 06:58:26;;;;;;;35.55;25.42;;;;;;;21.22;84.75;100865.25;5048774;28;20054;-82
2022/08/17 07:00:57;;;;;;;30.93;23.77;;;;;;;21.25;84.28;100867.31;5036879;28;20037;-82
2022/08/17 07:03:53;;;;;;;30.00;23.93;;;;;;;21.37;83.92;100863.88;5030140;28;20311;-83
2022/08/17 07:06:22;;;;;;;34.00;23.98;;;;;;;21.32;83.75;100866.78;5023687;28;20032;-83
2022/08/17 07:09:01;;;;;;;30.55;23.00;;;;;;;21.50;82.96;100862.03;5049324;28;20072;-83
2022/08/17 07:11:37;;;;;;;30.70;23.92;;;;;;;21.65;82.29;100870.78;5049217;28;20057;-82
2022/08/17 07:14:06;;;;;;;28.20;23.60;;;;;;;21.60;81.63;100869.03;5049366;28;20542;-83
2022/08/17 07:16:38;;;;;;;30.90;23.38;;;;;;;21.53;81.53;100853.19;5045749;28;20037;-83
2022/08/17 07:19:06;;;;;;;26.92;23.17;;;;;;;21.60;81.33;100866.28;5046374;28;20431;-83
2022/08/17 07:21:43;;;;;;;29.27;22.83;;;;;;;21.67;81.50;100865.78;5044933;28;20393;-82
2022/08/17 07:24:37;;;;;;;39.65;25.45;;;;;;;21.71;80.69;100866.72;5048912;28;20109;-82
2022/08/17 07:27:09;;;;;;;32.50;23.73;;;;;;;21.70;80.44;100865.13;5049319;28;20028;-82
2022/08/17 07:29:40;;;;;;;31.53;23.60;;;;;;;21.73;80.49;100859.00;5048397;28;20628;-82
2022/08/17 07:35:11;;;;;;;25.70;21.83;;;;;;;21.99;79.45;100869.72;5686176;22;20507;-81
2022/08/17 07:37:42;;;;;;;25.83;21.13;;;;;;;22.09;78.99;100880.19;5069622;28;20023;-83
2022/08/17 07:40:28;;;;;;;27.45;21.40;;;;;;;22.27;79.01;100884.69;5068392;28;20055;-82
2022/08/17 07:43:03;;;;;;;28.83;21.52;;;;;;;22.33;77.91;100881.41;5047342;28;20067;-82
2022/08/17 07:48:18;;;;;;;27.73;20.48;;;;;;;22.63;76.69;100894.16;5048194;28;20099;-82
2022/08/17 07:50:44;;;;;;;26.05;18.63;;;;;;;22.89;75.33;100902.03;5048495;28;20037;-83
2022/08/17 07:53:23;;;;;;;22.77;18.07;;;;;;;23.06;75.05;100902.94;5047396;28;20029;-83
2022/08/17 07:55:50;;;;;;;23.27;18.30;;;;;;;23.09;73.89;100903.06;5034665;28;20036;-82
2022/08/17 07:58:18;;;;;;;26.10;19.40;;;;;;;23.25;73.47;100908.66;5029570;28;20068;-85
2022/08/17 08:00:44;;;;;;;26.50;19.83;;;;;;;23.32;73.31;100912.75;5038730;28;20025;-82
2022/08/17 08:03:20;;;;;;;22.47;18.70;;;;;;;23.26;72.67;100910.25;5042536;28;20029;-82
2022/08/17 08:05:55;;;;;;;25.02;19.08;;;;;;;23.07;73.36;100907.28;5049052;28;20098;-82
2022/08/17 08:08:41;;;;;;;24.52;18.52;;;;;;;23.01;73.52;100923.06;5054046;28;20074;-82
2022/08/17 08:11:14;;;;;;;24.67;19.40;;;;;;;22.87;73.38;100915.22;5053496;28;20108;-82
2022/08/17 08:13:43;;;;;;;24.73;20.73;;;;;;;22.88;73.48;100910.56;5046307;28;20489;-86
2022/08/17 08:16:28;;;;;;;24.08;19.40;;;;;;;22.86;73.55;100901.91;5043725;28;20025;-83
2022/08/17 08:18:59;;;;;;;24.33;19.67;;;;;;;22.96;74.17;100917.84;5056841;28;20049;-84
2022/08/17 08:21:34;;;;;;;21.45;18.77;;;;;;;23.07;73.34;100902.59;5051384;28;20484;-83
2022/08/17 08:24:22;;;;;;;24.77;20.75;;;;;;;23.10;72.62;100896.44;5045000;28;20078;-84
2022/08/17 08:27:06;;;;;;;23.60;20.63;;;;;;;23.03;72.79;100900.91;5034700;28;20499;-83
2022/08/17 08:29:56;;;;;;;25.93;21.87;;;;;;;22.90;73.32;100876.31;5039781;28;20315;-83
2022/08/17 08:32:36;;;;;;;24.83;20.33;;;;;;;22.89;73.17;100871.16;5038593;28;20032;-84
2022/08/17 08:35:16;;;;;;;26.88;20.48;;;;;;;22.79;73.19;100862.31;5050861;28;20373;-84
2022/08/17 08:38:04;;;;;;;27.40;20.58;;;;;;;22.73;73.74;100871.84;5052200;28;20040;-84
2022/08/17 08:40:58;;;;;;;25.60;20.77;;;;;;;23.06;73.34;100903.72;5051171;28;20432;-83
2022/08/17 08:43:47;;;;;;;26.23;19.58;;;;;;;23.44;72.08;100919.00;5052914;28;20029;-83
2022/08/17 08:46:13;;;;;;;25.65;20.20;;;;;;;23.70;70.07;100933.44;5052341;28;20484;-83
2022/08/17 08:49:30;;;;;;;23.20;19.50;;;;;;;23.93;69.93;100936.44;5051427;28;20074;-83
2022/08/17 08:51:58;;;;;;;25.60;19.60;;;;;;;24.17;67.73;100921.94;5032859;28;20068;-84
2022/08/17 08:54:53;;;;;;;26.73;19.67;;;;;;;24.43;67.79;100922.59;5052669;28;20476;-83
2022/08/17 08:57:26;;;;;;;26.43;19.97;;;;;;;24.38;67.34;100917.38;5052585;28;20108;-83
2022/08/17 09:00:12;;;;;;;24.60;20.20;;;;;;;24.42;67.12;100894.41;5039025;28;20303;-84
2022/08/17 09:02:55;;;;;;;30.58;20.48;;;;;;;24.62;67.20;100900.81;5009139;28;20045;-83
2022/08/17 09:05:29;;;;;;;24.40;20.25;;;;;;;24.85;65.72;100900.22;5036244;28;20037;-83
2022/08/17 09:08:15;;;;;;;27.65;22.35;;;;;;;24.87;65.56;100908.09;5051569;28;20036;-83
2022/08/17 09:10:49;;;;;;;31.00;22.60;;;;;;;25.06;65.37;100907.38;5013884;28;20076;-83
2022/08/17 09:13:23;;;;;;;25.55;21.35;;;;;;;25.27;64.13;100923.53;5052340;28;20033;-83
2022/08/17 09:16:14;;;;;;;23.85;20.65;;;;;;;25.24;64.42;100918.75;5050925;28;20114;-83
2022/08/17 09:18:50;;;;;;;24.88;19.80;;;;;;;25.23;63.80;100923.44;5001230;28;20061;-83
2022/08/17 09:21:39;;;;;;;28.38;20.40;;;;;;;25.22;64.77;100921.84;5029842;28;20037;-83
2022/08/17 09:24:35;;;;;;;27.77;19.37;;;;;;;25.28;64.36;100918.84;5030140;28;20021;-83
2022/08/17 09:27:09;;;;;;;28.63;21.63;;;;;;;25.25;64.52;100926.63;5029331;28;20687;-83
2022/08/17 09:29:40;;;;;;;25.13;20.50;;;;;;;25.06;63.51;100934.78;5030939;28;20429;-83
2022/08/17 09:32:18;;;;;;;29.83;22.50;;;;;;;24.93;64.27;100947.75;5029214;28;20393;-83
2022/08/17 09:35:12;;;;;;;30.27;22.73;;;;;;;24.85;64.85;100956.97;5030298;28;20033;-83
2022/08/17 09:37:56;;;;;;;24.67;20.70;;;;;;;24.60;65.21;100966.09;5021370;28;20559;-84
2022/08/17 09:40:27;;;;;;;23.45;18.90;;;;;;;24.70;64.75;100967.56;5013775;28;20091;-83
2022/08/17 09:42:59;;;;;;;23.90;17.75;;;;;;;24.82;64.77;100974.91;5029381;28;20033;-83
2022/08/17 09:45:41;;;;;;;23.83;19.00;;;;;;;24.83;65.48;100998.44;5029615;28;20021;-83
2022/08/17 09:48:45;;;;;;;28.95;20.70;;;;;;;24.57;66.14;101005.16;5033246;28;20036;-84
2022/08/17 09:51:26;;;;;;;26.77;20.90;;;;;;;24.19;67.76;101009.16;5031041;28;20045;-85
2022/08/17 09:53:51;;;;;;;32.80;21.33;;;;;;;23.81;72.32;101004.88;5031043;28;21081;-86
2022/08/17 09:56:27;;;;;;;26.05;22.25;;;;;;;23.31;75.25;101013.09;5029933;28;20052;-85
2022/08/17 09:59:12;;;;;;;28.35;23.88;;;;;;;22.63;78.55;101014.28;5029268;28;20033;-87
2022/08/17 10:01:44;;;;;;;28.67;23.43;;;;;;;22.14;82.84;100999.22;5029456;28;20493;-85
2022/08/17 10:04:18;;;;;;;29.17;24.67;;;;;;;21.81;84.28;101002.69;5040251;28;20856;-88
2022/08/17 10:07:03;;;;;;;29.17;24.08;;;;;;;21.47;84.47;100993.53;5041676;28;20029;-85
2022/08/17 10:09:34;;;;;;;36.97;26.38;;;;;;;21.11;89.46;100997.53;5045382;28;20072;-85
2022/08/17 10:12:22;;;;;;;35.33;25.85;;;;;;;20.88;92.17;100995.81;5046887;28;20050;-84
2022/08/17 10:15:21;;;;;;;40.13;26.70;;;;;;;20.66;93.14;100990.53;5048169;28;20029;-86
2022/08/17 10:18:02;;;;;;;41.17;27.30;;;;;;;20.65;100.00;101006.06;5045959;28;20033;-85
2022/08/17 10:20:33;;;;;;;36.45;27.50;;;;;;;20.51;96.47;101005.44;5035443;28;20081;-85
2022/08/17 10:26:21;;;;;;;43.17;31.08;;;;;;;20.21;100.00;101006.06;5070262;28;20031;-86
2022/08/17 10:28:58;;;;;;;47.10;30.43;;;;;;;20.09;100.00;100998.53;5043498;28;20121;-86
2022/08/17 10:31:29;;;;;;;47.93;33.53;;;;;;;20.12;100.00;100995.19;5055973;28;20303;-86
2022/08/17 10:34:17;;;;;;;51.88;33.30;;;;;;;20.00;100.00;100996.94;5053818;28;20501;-84
2022/08/17 10:37:06;;;;;;;60.58;35.38;;;;;;;19.87;100.00;100979.63;5026474;28;20036;-85
2022/08/17 10:39:56;;;;;;;54.60;35.80;;;;;;;19.88;100.00;100960.28;5038805;28;20037;-87
2022/08/17 10:42:36;;;;;;;55.47;37.75;;;;;;;19.84;100.00;100942.97;5028635;28;20408;-85
2022/08/17 10:45:14;;;;;;;51.53;37.10;;;;;;;19.79;100.00;100951.31;5045286;28;20039;-87
2022/08/17 10:50:48;;;;;;;56.85;40.97;;;;;;;19.93;100.00;100940.28;5684140;22;20401;-84
2022/08/17 10:53:31;;;;;;;50.70;36.88;;;;;;;19.92;100.00;100938.69;5025110;28;20390;-86
2022/08/17 10:56:12;;;;;;;51.47;37.17;;;;;;;19.83;100.00;100949.53;5036575;28;20033;-87
2022/08/17 10:58:48;;;;;;;56.50;38.27;;;;;;;19.91;100.00;100947.97;5033339;28;20368;-86
2022/08/17 11:01:14;;;;;;;54.03;39.42;;;;;;;20.01;100.00;100950.41;5044587;28;20048;-86
2022/08/17 11:03:55;;;;;;;52.60;40.05;;;;;;;20.03;100.00;100937.28;5030158;28;20021;-86
2022/08/17 11:06:50;;;;;;;49.63;37.67;;;;;;;19.96;100.00;100939.66;5026965;28;20140;-83
2022/08/17 11:09:28;;;;;;;48.25;36.95;;;;;;;19.83;100.00;100949.53;5028365;28;20501;-83
2022/08/17 11:12:11;;;;;;;55.17;38.10;;;;;;;19.70;100.00;100953.19;5027324;28;20082;-84
2022/08/17 11:14:49;;;;;;;48.58;36.25;;;;;;;19.72;100.00;100961.84;5027460;28;20017;-83
2022/08/17 11:17:50;;;;;;;54.65;40.45;;;;;;;19.61;100.00;100961.31;5028933;28;20100;-83
2022/08/17 11:20:53;;;;;;;54.83;38.25;;;;;;;19.67;100.00;100969.00;5028170;28;20029;-86
2022/08/17 11:23:24;;;;;;;50.70;37.50;;;;;;;19.76;100.00;100974.47;5028074;28;20041;-85
2022/08/17 11:26:07;;;;;;;55.07;39.80;;;;;;;19.74;100.00;100975.91;5024614;28;20327;-83
2022/08/17 11:28:47;;;;;;;55.17;39.92;;;;;;;19.82;100.00;100975.94;5015861;28;20103;-86
2022/08/17 11:31:30;;;;;;;49.03;36.45;;;;;;;19.87;100.00;100985.06;5027442;28;20029;-85
2022/08/17 11:34:06;;;;;;;53.05;38.85;;;;;;;19.87;100.00;100988.59;5024526;28;20033;-85
2022/08/17 11:36:47;;;;;;;56.17;38.47;;;;;;;19.96;100.00;101002.22;5025819;28;20117;-83
2022/08/17 11:39:20;;;;;;;50.88;39.08;;;;;;;19.93;100.00;101000.13;5028201;28;20170;-84
2022/08/17 11:42:10;;;;;;;52.58;38.70;;;;;;;19.95;100.00;101019.63;5029267;28;20527;-84
2022/08/17 11:44:41;;;;;;;57.83;39.22;;;;;;;19.98;100.00;101019.00;5028585;28;20033;-86
2022/08/17 11:53:07;;;;;;;50.73;38.77;;;;;;;20.11;100.00;101022.72;5031229;28;20294;-86
2022/08/17 11:55:35;;;;;;;57.78;41.10;;;;;;;20.32;100.00;101031.06;5033778;28;20029;-86
2022/08/17 11:58:24;;;;;;;55.83;40.30;;;;;;;20.47;100.00;101020.81;5032560;28;20037;-86
2022/08/17 12:01:12;;;;;;;55.35;38.75;;;;;;;20.65;100.00;101038.72;5009131;28;20125;-86
2022/08/17 12:03:41;;;;;;;48.95;36.97;;;;;;;20.64;100.00;101044.50;5024753;28;20036;-82
2022/08/17 12:06:41;;;;;;;48.58;37.33;;;;;;;20.55;100.00;101045.28;5030870;28;20517;-82
2022/08/17 12:09:09;;;;;;;49.92;38.13;;;;;;;20.51;100.00;101052.53;5018483;28;20056;-82
2022/08/17 12:11:56;;;;;;;45.70;36.08;;;;;;;20.52;100.00;101056.84;5032154;28;20393;-82
2022/08/17 12:14:27;;;;;;;46.92;35.63;;;;;;;20.38;100.00;101059.72;5032647;28;20172;-83
2022/08/17 12:17:04;;;;;;;44.53;34.80;;;;;;;20.13;100.00;101064.78;5032886;28;20110;-82
2022/08/17 12:19:32;;;;;;;50.17;35.03;;;;;;;20.03;100.00;101065.09;5032747;28;20295;-82
2022/08/17 12:22:01;;;;;;;50.53;36.25;;;;;;;19.91;100.00;101059.44;5031905;28;20029;-84